EWG20W LOWS-EDDB
Flight info
| Callsign | EWG20W |
|---|---|
| Flight time | 0h 50m |
| Altitude | 33000 |
| Route | INROM DCT SIMBA Y700 NENUM DCT EPTEU DCT RUDNO T203 TIVDA DCT ETVIS DCT NAVEK DCT GAVLI T203 ATGUP |
| Aircraft | A320/M-SDE3FGHIRWY/LB1 |
Departure
| Time | 2026-05-07 16:36 |
|---|---|
| Airport | Salzburg Airport (LOWS) |
Arrival
| Time | 2026-05-07 17:26 |
|---|---|
| Airport | Berlin Brandenburg Airport (EDDB) |
| Time | Latitude | Longitude | Altitude | Speed | Heading |
|---|---|---|---|---|---|
| 2026-05-07 16:08 | 47.79285 | 13.00063 | 0 ft | 0 kts | 102° |
| 2026-05-07 16:26 | 47.79287 | 13.00045 | 1420 ft | 4 kts | 102° |
| 2026-05-07 16:26 | 47.79293 | 13.00007 | 1420 ft | 4 kts | 103° |
| 2026-05-07 16:26 | 47.79298 | 12.99982 | 1421 ft | 4 kts | 119° |
| 2026-05-07 16:27 | 47.79322 | 12.99953 | 1420 ft | 3 kts | 188° |
| 2026-05-07 16:27 | 47.79326 | 12.99954 | 1420 ft | 0 kts | 192° |
| 2026-05-07 16:28 | 47.79321 | 12.99959 | 1420 ft | 0 kts | 143° |
| 2026-05-07 16:29 | 47.79324 | 12.99987 | 1420 ft | 7 kts | 66° |
| 2026-05-07 16:29 | 47.79365 | 13.00071 | 1420 ft | 11 kts | 33° |
| 2026-05-07 16:29 | 47.79432 | 13.00064 | 1420 ft | 9 kts | 338° |
| 2026-05-07 16:29 | 47.79485 | 13.00032 | 1420 ft | 7 kts | 338° |
| 2026-05-07 16:30 | 47.79528 | 13.00005 | 1420 ft | 6 kts | 338° |
| 2026-05-07 16:30 | 47.79561 | 12.99981 | 1420 ft | 4 kts | 335° |
| 2026-05-07 16:30 | 47.79583 | 12.99966 | 1420 ft | 3 kts | 335° |
| 2026-05-07 16:30 | 47.79597 | 12.99957 | 1420 ft | 2 kts | 335° |
| 2026-05-07 16:31 | 47.79602 | 12.99953 | 1420 ft | 0 kts | 335° |
| 2026-05-07 16:31 | 47.79618 | 12.99945 | 1420 ft | 8 kts | 342° |
| 2026-05-07 16:31 | 47.79676 | 12.99911 | 1420 ft | 8 kts | 336° |
| 2026-05-07 16:32 | 47.79736 | 12.99873 | 1420 ft | 11 kts | 337° |
| 2026-05-07 16:32 | 47.79801 | 12.99833 | 1420 ft | 9 kts | 337° |
| 2026-05-07 16:32 | 47.79857 | 12.99798 | 1420 ft | 8 kts | 337° |
| 2026-05-07 16:32 | 47.79905 | 12.99767 | 1420 ft | 9 kts | 336° |
| 2026-05-07 16:33 | 47.79981 | 12.99719 | 1420 ft | 12 kts | 338° |
| 2026-05-07 16:33 | 47.80049 | 12.99675 | 1420 ft | 10 kts | 337° |
| 2026-05-07 16:33 | 47.80107 | 12.99638 | 1420 ft | 8 kts | 336° |
| 2026-05-07 16:33 | 47.80156 | 12.99608 | 1420 ft | 7 kts | 340° |
| 2026-05-07 16:34 | 47.80196 | 12.99591 | 1420 ft | 5 kts | 349° |
| 2026-05-07 16:34 | 47.80230 | 12.99599 | 1420 ft | 7 kts | 20° |
| 2026-05-07 16:34 | 47.80269 | 12.99663 | 1421 ft | 8 kts | 64° |
| 2026-05-07 16:34 | 47.80279 | 12.99748 | 1421 ft | 9 kts | 92° |
| 2026-05-07 16:35 | 47.80235 | 12.99824 | 1420 ft | 11 kts | 157° |
| 2026-05-07 16:35 | 47.80103 | 12.99905 | 1421 ft | 45 kts | 157° |
| 2026-05-07 16:35 | 47.79594 | 13.00229 | 1422 ft | 111 kts | 157° |
| 2026-05-07 16:35 | 47.78716 | 13.00778 | 1443 ft | 158 kts | 157° |
| 2026-05-07 16:36 | 47.77744 | 13.01427 | 2169 ft | 147 kts | 151° |
| 2026-05-07 16:36 | 47.76852 | 13.02188 | 2594 ft | 155 kts | 145° |
| 2026-05-07 16:36 | 47.75928 | 13.03172 | 2794 ft | 175 kts | 132° |
| 2026-05-07 16:36 | 47.75435 | 13.04886 | 3105 ft | 187 kts | 89° |
| 2026-05-07 16:37 | 47.75586 | 13.06106 | 3707 ft | 179 kts | 65° |
| 2026-05-07 16:37 | 47.76402 | 13.07455 | 4262 ft | 180 kts | 23° |
| 2026-05-07 16:37 | 47.77619 | 13.07672 | 4732 ft | 180 kts | 342° |
| 2026-05-07 16:37 | 47.78790 | 13.07013 | 5239 ft | 181 kts | 335° |
| 2026-05-07 16:38 | 47.79961 | 13.06302 | 5762 ft | 183 kts | 335° |
| 2026-05-07 16:38 | 47.81142 | 13.05586 | 6305 ft | 184 kts | 335° |
| 2026-05-07 16:38 | 47.82331 | 13.04870 | 6833 ft | 185 kts | 335° |
| 2026-05-07 16:38 | 47.83556 | 13.04183 | 7220 ft | 195 kts | 337° |
| 2026-05-07 16:39 | 47.84914 | 13.03490 | 7391 ft | 218 kts | 338° |
| 2026-05-07 16:39 | 47.86455 | 13.02866 | 7557 ft | 244 kts | 354° |
| 2026-05-07 16:39 | 47.88187 | 13.03413 | 7787 ft | 272 kts | 29° |
| 2026-05-07 16:39 | 47.89765 | 13.05150 | 8201 ft | 290 kts | 38° |
| 2026-05-07 16:40 | 47.91349 | 13.07063 | 8889 ft | 297 kts | 38° |
| 2026-05-07 16:40 | 47.92965 | 13.09028 | 9637 ft | 302 kts | 38° |
| 2026-05-07 16:40 | 47.94615 | 13.11028 | 10269 ft | 311 kts | 38° |
| 2026-05-07 16:40 | 47.96364 | 13.13133 | 10482 ft | 335 kts | 37° |
| 2026-05-07 16:41 | 47.98382 | 13.15019 | 10787 ft | 350 kts | 22° |
| 2026-05-07 16:41 | 48.00722 | 13.16099 | 11385 ft | 354 kts | 7° |
| 2026-05-07 16:41 | 48.03174 | 13.16253 | 12059 ft | 354 kts | 351° |
| 2026-05-07 16:41 | 48.05564 | 13.15471 | 12734 ft | 352 kts | 336° |
| 2026-05-07 16:42 | 48.07764 | 13.13892 | 13414 ft | 352 kts | 328° |
| 2026-05-07 16:42 | 48.09937 | 13.12147 | 14060 ft | 356 kts | 327° |
| 2026-05-07 16:42 | 48.12129 | 13.10374 | 14664 ft | 360 kts | 327° |
| 2026-05-07 16:42 | 48.14345 | 13.08582 | 15264 ft | 364 kts | 327° |
| 2026-05-07 16:43 | 48.16581 | 13.06774 | 15850 ft | 368 kts | 327° |
| 2026-05-07 16:43 | 48.18844 | 13.04945 | 16426 ft | 371 kts | 327° |
| 2026-05-07 16:43 | 48.21135 | 13.03105 | 17017 ft | 376 kts | 329° |
| 2026-05-07 16:43 | 48.23592 | 13.01640 | 17583 ft | 385 kts | 340° |
| 2026-05-07 16:44 | 48.26248 | 13.00859 | 18153 ft | 393 kts | 348° |
| 2026-05-07 16:44 | 48.28971 | 13.00276 | 18655 ft | 397 kts | 348° |
| 2026-05-07 16:44 | 48.31713 | 12.99680 | 19159 ft | 400 kts | 348° |
| 2026-05-07 16:44 | 48.34475 | 12.99075 | 19672 ft | 403 kts | 347° |
| 2026-05-07 16:45 | 48.37259 | 12.98460 | 20198 ft | 406 kts | 347° |
| 2026-05-07 16:45 | 48.40063 | 12.97837 | 20702 ft | 409 kts | 347° |
| 2026-05-07 16:45 | 48.42889 | 12.97210 | 21210 ft | 412 kts | 347° |
| 2026-05-07 16:45 | 48.45735 | 12.96577 | 21724 ft | 415 kts | 347° |
| 2026-05-07 16:46 | 48.48598 | 12.95943 | 22233 ft | 418 kts | 347° |
| 2026-05-07 16:46 | 48.51488 | 12.95304 | 22722 ft | 421 kts | 347° |
| 2026-05-07 16:46 | 48.54398 | 12.94660 | 23188 ft | 424 kts | 347° |
| 2026-05-07 16:46 | 48.57327 | 12.94016 | 23640 ft | 427 kts | 347° |
| 2026-05-07 16:47 | 48.60277 | 12.93372 | 24022 ft | 430 kts | 347° |
| 2026-05-07 16:47 | 48.63250 | 12.92728 | 24407 ft | 432 kts | 347° |
| 2026-05-07 16:47 | 48.66237 | 12.92083 | 24785 ft | 435 kts | 347° |
| 2026-05-07 16:47 | 48.69239 | 12.91431 | 25155 ft | 437 kts | 347° |
| 2026-05-07 16:48 | 48.72259 | 12.90770 | 25523 ft | 439 kts | 347° |
| 2026-05-07 16:48 | 48.75288 | 12.90103 | 25881 ft | 441 kts | 347° |
| 2026-05-07 16:48 | 48.78335 | 12.89431 | 26235 ft | 443 kts | 347° |
| 2026-05-07 16:48 | 48.81395 | 12.88755 | 26580 ft | 446 kts | 347° |
| 2026-05-07 16:49 | 48.84465 | 12.88079 | 26928 ft | 447 kts | 347° |
| 2026-05-07 16:49 | 48.87559 | 12.87422 | 27263 ft | 451 kts | 350° |
| 2026-05-07 16:49 | 48.90724 | 12.87389 | 27596 ft | 457 kts | 358° |
| 2026-05-07 16:49 | 48.93911 | 12.87573 | 27925 ft | 460 kts | 358° |
| 2026-05-07 16:50 | 48.97111 | 12.87772 | 28244 ft | 462 kts | 359° |
| 2026-05-07 16:50 | 49.00328 | 12.87981 | 28548 ft | 464 kts | 359° |
| 2026-05-07 16:50 | 49.03557 | 12.88198 | 28836 ft | 466 kts | 359° |
| 2026-05-07 16:50 | 49.06806 | 12.88418 | 29127 ft | 468 kts | 359° |
| 2026-05-07 16:51 | 49.10062 | 12.88632 | 29414 ft | 470 kts | 358° |
| 2026-05-07 16:51 | 49.13332 | 12.88844 | 29704 ft | 472 kts | 358° |
| 2026-05-07 16:51 | 49.16619 | 12.89059 | 29981 ft | 474 kts | 358° |
| 2026-05-07 16:51 | 49.19919 | 12.89273 | 30224 ft | 475 kts | 358° |
| 2026-05-07 16:52 | 49.23230 | 12.89486 | 30439 ft | 477 kts | 358° |
| 2026-05-07 16:52 | 49.26509 | 12.89694 | 30649 ft | 479 kts | 358° |
| 2026-05-07 16:52 | 49.29845 | 12.89906 | 30846 ft | 481 kts | 358° |
| 2026-05-07 16:52 | 49.33193 | 12.90121 | 31071 ft | 482 kts | 358° |
| 2026-05-07 16:53 | 49.36537 | 12.90342 | 31352 ft | 481 kts | 358° |
| 2026-05-07 16:53 | 49.39880 | 12.90565 | 31624 ft | 481 kts | 358° |
| 2026-05-07 16:53 | 49.43223 | 12.90786 | 31889 ft | 481 kts | 358° |
| 2026-05-07 16:53 | 49.46570 | 12.91004 | 32165 ft | 481 kts | 358° |
| 2026-05-07 16:54 | 49.49905 | 12.91218 | 32443 ft | 480 kts | 358° |
| 2026-05-07 16:54 | 49.53246 | 12.91433 | 32707 ft | 480 kts | 358° |
| 2026-05-07 16:54 | 49.56582 | 12.91648 | 32953 ft | 480 kts | 358° |
| 2026-05-07 16:55 | 49.63194 | 12.92090 | 33025 ft | 470 kts | 358° |
| 2026-05-07 16:55 | 49.69713 | 12.92526 | 33022 ft | 468 kts | 358° |
| 2026-05-07 16:56 | 49.76220 | 12.92954 | 33023 ft | 468 kts | 358° |
| 2026-05-07 16:56 | 49.85975 | 12.93598 | 33021 ft | 468 kts | 358° |
| 2026-05-07 16:57 | 49.92482 | 12.94026 | 33012 ft | 468 kts | 358° |
| 2026-05-07 16:57 | 49.98984 | 12.94453 | 33014 ft | 468 kts | 358° |
| 2026-05-07 16:58 | 50.05485 | 12.94894 | 33010 ft | 467 kts | 358° |
| 2026-05-07 16:58 | 50.11979 | 12.95332 | 33005 ft | 467 kts | 358° |
| 2026-05-07 16:59 | 50.18467 | 12.95770 | 33002 ft | 467 kts | 358° |
| 2026-05-07 16:59 | 50.24963 | 12.96244 | 33004 ft | 468 kts | 1° |
| 2026-05-07 17:00 | 50.31328 | 12.98642 | 33002 ft | 476 kts | 20° |
| 2026-05-07 17:00 | 50.37280 | 13.03242 | 33001 ft | 477 kts | 25° |
| 2026-05-07 17:01 | 50.43210 | 13.07947 | 33002 ft | 478 kts | 25° |
| 2026-05-07 17:01 | 50.49142 | 13.12652 | 33009 ft | 478 kts | 25° |
| 2026-05-07 17:02 | 50.55077 | 13.17381 | 33010 ft | 478 kts | 25° |
| 2026-05-07 17:02 | 50.58023 | 13.19745 | 32684 ft | 473 kts | 25° |
| 2026-05-07 17:02 | 50.60930 | 13.22091 | 32200 ft | 468 kts | 25° |
| 2026-05-07 17:03 | 50.63820 | 13.24426 | 31696 ft | 464 kts | 25° |
| 2026-05-07 17:03 | 50.66684 | 13.26738 | 31201 ft | 461 kts | 25° |
| 2026-05-07 17:03 | 50.69533 | 13.29034 | 30710 ft | 458 kts | 25° |
| 2026-05-07 17:03 | 50.72358 | 13.31311 | 30257 ft | 455 kts | 25° |
| 2026-05-07 17:04 | 50.75167 | 13.33578 | 29760 ft | 451 kts | 25° |
| 2026-05-07 17:04 | 50.77946 | 13.35831 | 29259 ft | 447 kts | 26° |
| 2026-05-07 17:04 | 50.80704 | 13.38071 | 28749 ft | 444 kts | 26° |
| 2026-05-07 17:04 | 50.83437 | 13.40290 | 28266 ft | 440 kts | 26° |
| 2026-05-07 17:05 | 50.86150 | 13.42495 | 27804 ft | 436 kts | 26° |
| 2026-05-07 17:05 | 50.88834 | 13.44681 | 27378 ft | 432 kts | 26° |
| 2026-05-07 17:05 | 50.91504 | 13.46828 | 26940 ft | 428 kts | 23° |
| 2026-05-07 17:05 | 50.94268 | 13.48481 | 26516 ft | 422 kts | 13° |
| 2026-05-07 17:06 | 50.97110 | 13.49467 | 26095 ft | 416 kts | 7° |
| 2026-05-07 17:06 | 50.99956 | 13.50229 | 25678 ft | 413 kts | 7° |
| 2026-05-07 17:06 | 51.02780 | 13.50998 | 25261 ft | 410 kts | 7° |
| 2026-05-07 17:06 | 51.05580 | 13.51760 | 24844 ft | 407 kts | 7° |
| 2026-05-07 17:07 | 51.08360 | 13.52513 | 24424 ft | 404 kts | 7° |
| 2026-05-07 17:07 | 51.11128 | 13.53018 | 24029 ft | 398 kts | 358° |
| 2026-05-07 17:07 | 51.13883 | 13.53119 | 23612 ft | 395 kts | 359° |
| 2026-05-07 17:07 | 51.16615 | 13.53225 | 23146 ft | 392 kts | 359° |
| 2026-05-07 17:08 | 51.19330 | 13.53332 | 22674 ft | 389 kts | 359° |
| 2026-05-07 17:08 | 51.22028 | 13.53435 | 22216 ft | 386 kts | 359° |
| 2026-05-07 17:08 | 51.24708 | 13.53536 | 21781 ft | 384 kts | 359° |
| 2026-05-07 17:08 | 51.27367 | 13.53629 | 21352 ft | 381 kts | 359° |
| 2026-05-07 17:09 | 51.30008 | 13.53720 | 20930 ft | 378 kts | 359° |
| 2026-05-07 17:09 | 51.32598 | 13.53809 | 20527 ft | 376 kts | 359° |
| 2026-05-07 17:09 | 51.35202 | 13.53900 | 20133 ft | 373 kts | 359° |
| 2026-05-07 17:09 | 51.37824 | 13.53993 | 19732 ft | 371 kts | 359° |
| 2026-05-07 17:10 | 51.40359 | 13.54087 | 19351 ft | 368 kts | 359° |
| 2026-05-07 17:10 | 51.42909 | 13.54179 | 18978 ft | 365 kts | 359° |
| 2026-05-07 17:10 | 51.45446 | 13.54267 | 18621 ft | 363 kts | 359° |
| 2026-05-07 17:10 | 51.47961 | 13.54356 | 18253 ft | 361 kts | 359° |
| 2026-05-07 17:11 | 51.50462 | 13.54446 | 17844 ft | 358 kts | 359° |
| 2026-05-07 17:11 | 51.52942 | 13.54538 | 17452 ft | 355 kts | 359° |
| 2026-05-07 17:11 | 51.55402 | 13.54631 | 17070 ft | 353 kts | 359° |
| 2026-05-07 17:11 | 51.57849 | 13.54725 | 16687 ft | 350 kts | 359° |
| 2026-05-07 17:12 | 51.60300 | 13.54814 | 16126 ft | 354 kts | 359° |
| 2026-05-07 17:12 | 51.62763 | 13.54901 | 15702 ft | 353 kts | 359° |
| 2026-05-07 17:12 | 51.65209 | 13.54988 | 15315 ft | 351 kts | 359° |
| 2026-05-07 17:12 | 51.67674 | 13.55075 | 14693 ft | 357 kts | 359° |
| 2026-05-07 17:13 | 51.70156 | 13.55165 | 14249 ft | 356 kts | 359° |
| 2026-05-07 17:13 | 51.72623 | 13.55257 | 13854 ft | 354 kts | 359° |
| 2026-05-07 17:13 | 51.75081 | 13.55349 | 13417 ft | 352 kts | 359° |
| 2026-05-07 17:13 | 51.77518 | 13.55441 | 12977 ft | 349 kts | 359° |
| 2026-05-07 17:14 | 51.79937 | 13.55528 | 12546 ft | 347 kts | 359° |
| 2026-05-07 17:14 | 51.82337 | 13.55614 | 12098 ft | 344 kts | 359° |
| 2026-05-07 17:14 | 51.84724 | 13.55701 | 11687 ft | 342 kts | 359° |
| 2026-05-07 17:14 | 51.87089 | 13.55787 | 11261 ft | 339 kts | 359° |
| 2026-05-07 17:15 | 51.89441 | 13.55874 | 10836 ft | 337 kts | 359° |
| 2026-05-07 17:15 | 51.91777 | 13.55962 | 10418 ft | 334 kts | 359° |
| 2026-05-07 17:15 | 51.94075 | 13.56050 | 10218 ft | 325 kts | 359° |
| 2026-05-07 17:15 | 51.96295 | 13.56135 | 10027 ft | 315 kts | 359° |
| 2026-05-07 17:16 | 51.98442 | 13.56160 | 9911 ft | 302 kts | 353° |
| 2026-05-07 17:16 | 52.00456 | 13.55481 | 9664 ft | 292 kts | 336° |
| 2026-05-07 17:16 | 52.02233 | 13.53996 | 9332 ft | 285 kts | 321° |
| 2026-05-07 17:16 | 52.03681 | 13.51872 | 9006 ft | 278 kts | 308° |
| 2026-05-07 17:17 | 52.04788 | 13.49322 | 8597 ft | 274 kts | 301° |
| 2026-05-07 17:17 | 52.05829 | 13.46749 | 8024 ft | 272 kts | 301° |
| 2026-05-07 17:17 | 52.06866 | 13.44191 | 7463 ft | 270 kts | 301° |
| 2026-05-07 17:17 | 52.07899 | 13.41650 | 6932 ft | 268 kts | 301° |
| 2026-05-07 17:18 | 52.08919 | 13.39136 | 6332 ft | 265 kts | 302° |
| 2026-05-07 17:18 | 52.09925 | 13.36653 | 5679 ft | 262 kts | 302° |
| 2026-05-07 17:18 | 52.10925 | 13.34185 | 5063 ft | 261 kts | 302° |
| 2026-05-07 17:18 | 52.11919 | 13.31721 | 4675 ft | 259 kts | 302° |
| 2026-05-07 17:19 | 52.12905 | 13.29276 | 4252 ft | 258 kts | 302° |
| 2026-05-07 17:19 | 52.13890 | 13.26838 | 3812 ft | 258 kts | 303° |
| 2026-05-07 17:19 | 52.14871 | 13.24397 | 3374 ft | 258 kts | 304° |
| 2026-05-07 17:19 | 52.16026 | 13.22194 | 3036 ft | 254 kts | 320° |
| 2026-05-07 17:20 | 52.17481 | 13.20543 | 2995 ft | 256 kts | 334° |
| 2026-05-07 17:20 | 52.19121 | 13.19421 | 2998 ft | 256 kts | 340° |
| 2026-05-07 17:20 | 52.20753 | 13.18381 | 3003 ft | 245 kts | 340° |
| 2026-05-07 17:20 | 52.22336 | 13.17378 | 3003 ft | 245 kts | 343° |
| 2026-05-07 17:21 | 52.23973 | 13.16930 | 2999 ft | 231 kts | 2° |
| 2026-05-07 17:21 | 52.25510 | 13.17326 | 2999 ft | 221 kts | 20° |
| 2026-05-07 17:21 | 52.26440 | 13.17992 | 3007 ft | 220 kts | 31° |
| 2026-05-07 17:21 | 52.27960 | 13.20169 | 3007 ft | 219 kts | 54° |
| 2026-05-07 17:22 | 52.28468 | 13.21541 | 3008 ft | 209 kts | 65° |
| 2026-05-07 17:22 | 52.28993 | 13.23678 | 3004 ft | 198 kts | 68° |
| 2026-05-07 17:22 | 52.29493 | 13.25750 | 3018 ft | 191 kts | 68° |
| 2026-05-07 17:22 | 52.29962 | 13.27703 | 2861 ft | 181 kts | 68° |
| 2026-05-07 17:23 | 52.30416 | 13.29591 | 2632 ft | 176 kts | 68° |
| 2026-05-07 17:23 | 52.30863 | 13.31454 | 2392 ft | 176 kts | 67° |
| 2026-05-07 17:23 | 52.31308 | 13.33310 | 2145 ft | 173 kts | 68° |
| 2026-05-07 17:23 | 52.31734 | 13.35087 | 1925 ft | 162 kts | 67° |
| 2026-05-07 17:24 | 52.32128 | 13.36735 | 1691 ft | 150 kts | 68° |
| 2026-05-07 17:24 | 52.32494 | 13.38263 | 1515 ft | 140 kts | 68° |
| 2026-05-07 17:24 | 52.32845 | 13.39729 | 1303 ft | 137 kts | 68° |
| 2026-05-07 17:24 | 52.33191 | 13.41175 | 1046 ft | 136 kts | 68° |
| 2026-05-07 17:25 | 52.33537 | 13.42619 | 789 ft | 137 kts | 69° |
| 2026-05-07 17:25 | 52.33887 | 13.44084 | 588 ft | 139 kts | 70° |
| 2026-05-07 17:25 | 52.34239 | 13.45561 | 373 ft | 140 kts | 70° |
| 2026-05-07 17:25 | 52.34592 | 13.47041 | 199 ft | 140 kts | 71° |
| 2026-05-07 17:26 | 52.34909 | 13.48388 | 160 ft | 110 kts | 69° |
| 2026-05-07 17:26 | 52.35151 | 13.49413 | 159 ft | 82 kts | 68° |
| 2026-05-07 17:26 | 52.35328 | 13.50157 | 156 ft | 60 kts | 68° |
| 2026-05-07 17:26 | 52.35503 | 13.50582 | 156 ft | 32 kts | 41° |
| 2026-05-07 17:27 | 52.35599 | 13.50713 | 153 ft | 10 kts | 39° |
| 2026-05-07 17:27 | 52.35646 | 13.50776 | 151 ft | 9 kts | 39° |
| 2026-05-07 17:27 | 52.35694 | 13.50830 | 151 ft | 8 kts | 24° |
| 2026-05-07 17:27 | 52.35745 | 13.50836 | 150 ft | 8 kts | 348° |
| 2026-05-07 17:28 | 52.35796 | 13.50810 | 150 ft | 7 kts | 340° |
| 2026-05-07 17:28 | 52.35832 | 13.50788 | 152 ft | 8 kts | 339° |
| 2026-05-07 17:28 | 52.35901 | 13.50785 | 153 ft | 9 kts | 33° |
| 2026-05-07 17:28 | 52.35928 | 13.50867 | 154 ft | 9 kts | 71° |
| 2026-05-07 17:29 | 52.35956 | 13.50990 | 156 ft | 11 kts | 69° |
| 2026-05-07 17:29 | 52.35985 | 13.51109 | 155 ft | 11 kts | 68° |
| 2026-05-07 17:29 | 52.36011 | 13.51216 | 155 ft | 10 kts | 68° |
| 2026-05-07 17:29 | 52.36035 | 13.51274 | 156 ft | 3 kts | 23° |
| 2026-05-07 17:30 | 52.36072 | 13.51263 | 155 ft | 10 kts | 335° |
| 2026-05-07 17:30 | 52.36105 | 13.51240 | 155 ft | 2 kts | 338° |
| 2026-05-07 17:30 | 52.36109 | 13.51237 | 155 ft | 0 kts | 339° |